createdAt,value
2022-11-25T00:01:46.934Z,75.74
2022-11-25T00:04:18.904Z,75.34
2022-11-25T00:06:50.902Z,75.59
2022-11-25T00:09:22.883Z,75.64
2022-11-25T00:11:54.824Z,75.72
2022-11-25T00:14:26.784Z,75.47
2022-11-25T00:16:58.722Z,75.72
2022-11-25T00:19:30.737Z,75.85
2022-11-25T00:22:02.674Z,75.92
2022-11-25T00:24:34.799Z,75.87
2022-11-25T00:27:07.037Z,76.03
2022-11-25T00:29:39.717Z,75.81
2022-11-25T00:32:12.005Z,75.87
2022-11-25T00:34:44.193Z,75.77
2022-11-25T00:37:16.538Z,75.92
2022-11-25T00:39:48.494Z,75.84
2022-11-25T00:42:38.222Z,75.87
2022-11-25T00:45:12.029Z,75.55
2022-11-25T00:47:44.045Z,75.49
2022-11-25T00:50:16.254Z,75.42
2022-11-25T00:52:48.329Z,75.55
2022-11-25T00:55:20.368Z,75.26
2022-11-25T00:57:52.285Z,75.34
2022-11-25T01:00:24.906Z,75.63
2022-11-25T01:02:56.874Z,75.68
2022-11-25T01:05:28.760Z,75.72
2022-11-25T01:08:00.724Z,75.57
2022-11-25T01:10:32.661Z,75.81
2022-11-25T01:13:04.752Z,75.78
2022-11-25T01:15:39.300Z,75.71
2022-11-25T01:18:11.264Z,75.80
2022-11-25T01:20:43.204Z,75.84
2022-11-25T01:23:15.420Z,75.76
2022-11-25T01:25:47.413Z,75.68
2022-11-25T01:28:19.322Z,75.35
2022-11-25T01:31:02.217Z,75.40
2022-11-25T01:33:35.025Z,75.59
2022-11-25T01:36:09.654Z,75.41
2022-11-25T01:38:42.486Z,75.76
2022-11-25T01:41:15.831Z,75.43
2022-11-25T01:44:09.114Z,75.73
2022-11-25T01:46:55.551Z,75.84
2022-11-25T01:49:33.091Z,75.96
2022-11-25T01:52:10.896Z,76.02
2022-11-25T01:54:51.867Z,75.89
2022-11-25T01:57:29.590Z,75.85
2022-11-25T02:00:04.777Z,75.95
2022-11-25T02:02:50.843Z,75.89
2022-11-25T02:05:34.061Z,75.72
2022-11-25T02:08:08.213Z,75.65
2022-11-25T02:10:43.315Z,75.48
2022-11-25T02:13:16.084Z,75.65
2022-11-25T02:15:48.125Z,75.51
2022-11-25T02:18:20.292Z,75.38
2022-11-25T02:20:52.285Z,75.68
2022-11-25T02:23:34.384Z,75.65
2022-11-25T02:26:07.374Z,75.84
2022-11-25T02:28:39.950Z,75.85
2022-11-25T02:31:12.137Z,76.00
2022-11-25T02:33:44.132Z,75.79
2022-11-25T02:36:19.118Z,75.90
2022-11-25T02:38:54.100Z,75.84
2022-11-25T02:41:26.625Z,75.87
2022-11-25T02:44:03.275Z,75.89
2022-11-25T02:46:35.941Z,76.02
2022-11-25T02:49:09.957Z,75.74
2022-11-25T02:51:45.012Z,75.51
2022-11-25T02:54:17.810Z,75.39
2022-11-25T02:56:49.798Z,75.39
2022-11-25T02:59:22.069Z,75.64
2022-11-25T03:01:54.101Z,75.58
2022-11-25T03:04:26.098Z,75.38
2022-11-25T03:06:58.036Z,75.61
2022-11-25T03:09:30.154Z,75.89
2022-11-25T03:12:20.690Z,75.79
2022-11-25T03:14:53.100Z,75.92
2022-11-25T03:17:25.319Z,76.05
2022-11-25T03:19:59.305Z,75.94
2022-11-25T03:22:31.269Z,75.86
2022-11-25T03:25:03.494Z,76.05
2022-11-25T03:27:36.608Z,75.92
2022-11-25T03:30:13.075Z,75.76
2022-11-25T03:32:45.223Z,75.68
2022-11-25T03:35:18.666Z,75.47
2022-11-25T03:37:51.324Z,75.47
2022-11-25T03:40:23.671Z,75.42
2022-11-25T03:42:55.859Z,75.60
2022-11-25T03:45:28.406Z,75.80
2022-11-25T03:48:02.091Z,75.93
2022-11-25T03:50:34.079Z,75.84
2022-11-25T03:53:06.019Z,75.82
2022-11-25T03:55:38.031Z,75.83
2022-11-25T03:58:10.097Z,75.86
2022-11-25T04:00:42.193Z,75.57
2022-11-25T04:03:14.409Z,76.03
2022-11-25T04:05:46.707Z,75.89
2022-11-25T04:08:18.644Z,75.66
2022-11-25T04:10:51.645Z,75.54
2022-11-25T04:13:26.512Z,75.50
2022-11-25T04:15:58.936Z,75.39
2022-11-25T04:18:31.489Z,75.41
2022-11-25T04:21:03.710Z,75.49
2022-11-25T04:23:36.340Z,75.56
2022-11-25T04:26:09.324Z,75.80
2022-11-25T04:28:44.078Z,75.57
2022-11-25T04:31:16.508Z,75.85
2022-11-25T04:33:52.574Z,75.78
2022-11-25T04:36:26.498Z,75.91
2022-11-25T04:39:00.311Z,75.89
2022-11-25T04:41:32.446Z,75.96
2022-11-25T04:44:04.537Z,75.79
2022-11-25T04:46:42.012Z,75.82
2022-11-25T04:49:14.378Z,75.66
2022-11-25T04:51:46.628Z,75.73
2022-11-25T04:54:19.149Z,75.40
2022-11-25T04:56:52.190Z,75.40
2022-11-25T04:59:42.561Z,75.53
2022-11-25T05:02:18.275Z,75.34
2022-11-25T05:04:59.721Z,75.67
2022-11-25T05:07:31.977Z,75.54
2022-11-25T05:10:04.731Z,75.55
2022-11-25T05:12:43.111Z,75.88
2022-11-25T05:15:16.744Z,75.64
2022-11-25T05:17:50.447Z,75.91
2022-11-25T05:20:26.554Z,75.90
2022-11-25T05:22:58.723Z,75.82
2022-11-25T05:25:30.712Z,75.82
2022-11-25T05:28:21.135Z,75.71
2022-11-25T05:30:53.356Z,75.69
2022-11-25T05:33:26.239Z,75.74
2022-11-25T05:36:01.081Z,75.48
2022-11-25T05:38:37.716Z,75.50
2022-11-25T05:41:11.223Z,75.77
2022-11-25T05:43:43.207Z,75.45
2022-11-25T05:46:15.578Z,75.62
2022-11-25T05:48:55.989Z,75.57
2022-11-25T05:51:29.435Z,75.75
2022-11-25T05:54:01.507Z,75.75
2022-11-25T05:56:36.181Z,76.03
2022-11-25T05:59:26.780Z,75.77
2022-11-25T06:02:08.058Z,75.87
2022-11-25T06:04:40.826Z,76.13
2022-11-25T06:07:14.026Z,76.06
2022-11-25T06:09:46.511Z,75.94
2022-11-25T06:12:18.482Z,75.91
2022-11-25T06:14:52.998Z,75.87
2022-11-25T06:17:24.988Z,75.83
2022-11-25T06:20:05.143Z,75.68
2022-11-25T06:22:37.516Z,75.78
2022-11-25T06:25:12.121Z,75.64
2022-11-25T06:28:11.123Z,75.46
2022-11-25T06:30:36.267Z,75.22
2022-11-25T06:33:15.375Z,75.32
2022-11-25T06:35:48.975Z,75.57
2022-11-25T06:38:20.938Z,75.64
2022-11-25T06:40:55.220Z,75.73
2022-11-25T06:43:30.191Z,75.70
2022-11-25T06:46:07.796Z,75.61
2022-11-25T06:48:40.439Z,75.65
2022-11-25T06:51:14.067Z,75.76
2022-11-25T06:53:46.544Z,75.67
2022-11-25T06:56:20.668Z,75.65
2022-11-25T06:58:53.439Z,75.68
2022-11-25T07:01:28.032Z,75.56
2022-11-25T07:04:03.336Z,75.70
2022-11-25T07:06:34.513Z,75.40
2022-11-25T07:09:06.772Z,75.44
2022-11-25T07:11:41.245Z,75.25
2022-11-25T07:14:16.227Z,75.26
2022-11-25T07:16:49.220Z,75.52
2022-11-25T07:19:21.971Z,75.50
2022-11-25T07:21:54.292Z,75.80
2022-11-25T07:24:26.181Z,75.69
2022-11-25T07:26:58.429Z,75.83
2022-11-25T07:29:54.226Z,75.73
2022-11-25T07:32:23.181Z,75.95
2022-11-25T07:34:55.180Z,75.99
2022-11-25T07:37:27.878Z,75.89
2022-11-25T07:40:00.210Z,75.72
2022-11-25T07:42:32.100Z,75.86
2022-11-25T07:45:04.548Z,75.81
2022-11-25T07:47:47.392Z,75.62
2022-11-25T07:50:19.659Z,75.66
2022-11-25T07:52:51.597Z,75.40
2022-11-25T07:55:23.453Z,75.70
2022-11-25T07:57:55.422Z,75.74
2022-11-25T08:00:27.627Z,75.49
2022-11-25T08:02:59.743Z,75.78
2022-11-25T08:05:33.720Z,75.89
2022-11-25T08:08:06.230Z,75.85
2022-11-25T08:10:40.458Z,76.11
2022-11-25T08:13:12.326Z,75.83
2022-11-25T08:15:44.168Z,75.92
2022-11-25T08:18:16.505Z,75.93
2022-11-25T08:20:48.445Z,75.72
2022-11-25T08:23:20.353Z,75.83
2022-11-25T08:25:52.292Z,75.63
2022-11-25T08:28:24.746Z,75.50
2022-11-25T08:31:04.985Z,75.36
2022-11-25T08:33:37.117Z,75.38
2022-11-25T08:36:11.054Z,75.44
2022-11-25T08:38:43.886Z,75.71
2022-11-25T08:41:17.972Z,75.61
2022-11-25T08:43:50.269Z,75.84
2022-11-25T08:46:24.322Z,75.60
2022-11-25T08:48:57.092Z,75.84
2022-11-25T08:51:32.330Z,75.72
2022-11-25T08:54:05.649Z,75.62
2022-11-25T08:56:38.330Z,75.85
2022-11-25T08:59:10.247Z,75.67
2022-11-25T09:01:42.318Z,75.79
2022-11-25T09:04:14.373Z,75.58
2022-11-25T09:06:46.702Z,75.53
2022-11-25T09:09:18.736Z,75.45
2022-11-25T09:11:50.768Z,75.23
2022-11-25T09:14:22.837Z,75.35
2022-11-25T09:16:57.149Z,75.39
2022-11-25T09:19:29.329Z,75.24
2022-11-25T09:22:01.215Z,75.43
2022-11-25T09:24:33.280Z,75.47
2022-11-25T09:27:05.287Z,75.60
2022-11-25T09:29:37.456Z,75.57
2022-11-25T09:32:09.605Z,75.60
2022-11-25T09:34:41.796Z,75.48
2022-11-25T09:37:15.276Z,75.47
2022-11-25T09:39:47.238Z,75.43
2022-11-25T09:42:49.793Z,75.53
2022-11-25T09:45:55.522Z,75.48
2022-11-25T09:48:47.737Z,75.38
2022-11-25T09:51:24.470Z,75.39
2022-11-25T09:53:59.293Z,74.95
2022-11-25T09:56:40.035Z,75.19
2022-11-25T09:59:16.710Z,74.98
2022-11-25T10:01:54.756Z,75.14
2022-11-25T10:04:32.644Z,75.07
2022-11-25T10:07:05.811Z,75.40
2022-11-25T10:09:38.673Z,75.48
2022-11-25T10:12:20.795Z,75.43
2022-11-25T10:14:57.061Z,75.52
2022-11-25T10:17:37.598Z,75.65
2022-11-25T10:20:19.218Z,75.62
2022-11-25T10:22:53.608Z,75.60
2022-11-25T10:25:29.694Z,75.52
2022-11-25T10:28:03.491Z,75.51
2022-11-25T10:30:42.145Z,75.49
2022-11-25T10:33:21.044Z,75.35
2022-11-25T10:35:59.384Z,75.27
2022-11-25T10:38:40.590Z,74.93
2022-11-25T10:41:17.375Z,75.15
2022-11-25T10:43:50.277Z,75.10
2022-11-25T10:46:57.024Z,75.16
2022-11-25T10:49:31.145Z,75.39
2022-11-25T10:52:03.473Z,75.31
2022-11-25T10:54:35.481Z,75.45
2022-11-25T10:57:20.243Z,75.41
2022-11-25T11:00:00.294Z,75.55
2022-11-25T11:02:39.337Z,75.55
2022-11-25T11:05:24.398Z,75.69
2022-11-25T11:11:19.783Z,75.56
2022-11-25T11:14:00.272Z,75.16
2022-11-25T11:16:35.323Z,75.28
2022-11-25T11:19:05.859Z,75.32
2022-11-25T11:21:41.924Z,74.95
2022-11-25T11:24:29.192Z,75.13
2022-11-25T11:27:16.135Z,74.75
2022-11-25T11:29:48.093Z,74.72
2022-11-25T11:32:26.279Z,74.91
2022-11-25T11:35:09.689Z,75.01
2022-11-25T11:37:45.363Z,75.16
2022-11-25T11:40:37.293Z,75.27
2022-11-25T11:43:30.838Z,75.23
2022-11-25T11:46:16.479Z,75.10
2022-11-25T11:49:00.365Z,75.37
2022-11-25T11:51:41.722Z,75.37
2022-11-25T11:54:19.903Z,75.23
2022-11-25T11:56:56.965Z,75.25
2022-11-25T11:59:48.994Z,75.19
2022-11-25T12:02:31.046Z,75.14
2022-11-25T12:05:14.584Z,75.35
2022-11-25T12:07:55.982Z,75.02
2022-11-25T12:10:31.540Z,74.98
2022-11-25T12:13:14.181Z,74.83
2022-11-25T12:15:52.026Z,74.78
2022-11-25T12:18:35.541Z,74.74
2022-11-25T12:21:09.885Z,74.60
2022-11-25T12:23:52.294Z,74.90
2022-11-25T12:26:30.144Z,74.99
2022-11-25T12:29:06.485Z,74.83
2022-11-25T12:31:43.240Z,74.80
2022-11-25T12:34:23.854Z,74.96
2022-11-25T12:37:05.212Z,75.01
2022-11-25T12:39:42.225Z,75.27
2022-11-25T12:42:21.915Z,75.04
2022-11-25T12:44:59.538Z,74.82
2022-11-25T12:47:31.927Z,74.90
2022-11-25T12:50:04.026Z,74.91
2022-11-25T12:52:54.774Z,74.97
2022-11-25T12:55:29.020Z,74.89
2022-11-25T12:58:30.118Z,74.90
2022-11-25T13:01:34.104Z,74.81
2022-11-25T13:04:41.969Z,74.57
2022-11-25T13:07:31.583Z,74.56
2022-11-25T13:10:40.623Z,74.61
2022-11-25T13:13:27.723Z,74.65
2022-11-25T13:16:03.123Z,74.87
2022-11-25T13:18:39.580Z,74.95
2022-11-25T13:21:14.050Z,74.62
2022-11-25T13:23:49.781Z,75.10
2022-11-25T13:26:51.290Z,74.78
2022-11-25T13:30:01.314Z,74.86
2022-11-25T13:32:42.307Z,74.87
2022-11-25T13:35:38.139Z,74.76
2022-11-25T13:38:25.078Z,74.87
2022-11-25T13:41:01.469Z,74.89
2022-11-25T13:43:33.484Z,74.82
2022-11-25T13:46:05.540Z,74.66
2022-11-25T13:48:39.023Z,74.77
2022-11-25T13:51:22.172Z,74.61
2022-11-25T13:53:59.028Z,74.46
2022-11-25T13:56:34.242Z,74.43
2022-11-25T13:59:38.986Z,74.52
2022-11-25T14:02:45.428Z,74.37
2022-11-25T14:05:48.872Z,74.46
2022-11-25T14:08:38.883Z,74.57
2022-11-25T14:11:45.258Z,74.72
2022-11-25T14:15:02.350Z,74.84
2022-11-25T14:17:50.084Z,74.94
2022-11-25T14:20:37.176Z,74.84
2022-11-25T14:23:43.392Z,74.59
2022-11-25T14:26:41.689Z,74.64
2022-11-25T14:29:13.916Z,74.90
2022-11-25T14:31:51.384Z,74.70
2022-11-25T14:34:28.813Z,74.74
2022-11-25T14:37:09.269Z,74.65
2022-11-25T14:39:46.501Z,74.63
2022-11-25T14:42:22.330Z,74.01
2022-11-25T14:44:58.480Z,74.19
2022-11-25T14:47:38.577Z,74.13
2022-11-25T14:50:34.343Z,74.37
2022-11-25T14:53:10.605Z,74.21
2022-11-25T14:55:42.755Z,74.42
2022-11-25T14:58:16.225Z,74.40
2022-11-25T15:01:01.702Z,74.56
2022-11-25T15:03:33.992Z,74.39
2022-11-25T15:06:08.409Z,74.44
2022-11-25T15:08:45.810Z,74.56
2022-11-25T15:11:21.054Z,74.63
2022-11-25T15:13:59.338Z,74.42
2022-11-25T15:16:37.383Z,74.57
2022-11-25T15:19:19.188Z,74.41
2022-11-25T15:22:24.951Z,74.41
2022-11-25T15:24:55.135Z,74.12
2022-11-25T15:27:29.920Z,74.05
2022-11-25T15:30:01.870Z,74.07
2022-11-25T15:32:38.118Z,73.95
2022-11-25T15:35:19.508Z,73.83
2022-11-25T15:37:54.454Z,73.89
2022-11-25T15:40:40.841Z,73.94
2022-11-25T15:43:25.070Z,74.05
2022-11-25T15:46:01.719Z,73.92
2022-11-25T15:48:39.786Z,74.23
2022-11-25T15:51:25.958Z,74.19
2022-11-25T15:54:01.671Z,74.12
2022-11-25T15:56:37.422Z,74.15
2022-11-25T15:59:51.609Z,74.21
2022-11-25T16:02:39.109Z,74.05
2022-11-25T16:05:26.250Z,74.04
2022-11-25T16:08:04.151Z,73.92
2022-11-25T16:10:50.656Z,73.87
2022-11-25T16:13:34.011Z,73.93
2022-11-25T16:16:27.124Z,73.71
2022-11-25T16:19:20.588Z,73.76
2022-11-25T16:21:59.974Z,73.82
2022-11-25T16:24:38.522Z,73.90
2022-11-25T16:27:21.003Z,73.73
2022-11-25T16:29:56.146Z,73.59
2022-11-25T16:32:27.540Z,73.50
2022-11-25T16:35:12.664Z,73.55
2022-11-25T16:37:48.947Z,73.74
2022-11-25T16:40:21.940Z,73.73
2022-11-25T16:42:54.082Z,73.63
2022-11-25T16:45:28.358Z,73.93
2022-11-25T16:48:00.493Z,73.78
2022-11-25T16:50:32.508Z,73.97
2022-11-25T16:53:04.420Z,73.86
2022-11-25T16:55:37.014Z,73.83
2022-11-25T16:58:18.120Z,73.79
2022-11-25T17:00:53.037Z,73.83
2022-11-25T17:03:26.861Z,73.90
2022-11-25T17:06:00.117Z,73.75
2022-11-25T17:08:32.093Z,73.79
2022-11-25T17:11:04.675Z,73.70
2022-11-25T17:13:39.970Z,73.64
2022-11-25T17:16:16.683Z,73.71
2022-11-25T17:18:49.807Z,73.89
2022-11-25T17:21:26.938Z,73.63
2022-11-25T17:24:07.252Z,73.35
2022-11-25T17:26:42.440Z,73.35
2022-11-25T17:29:18.272Z,73.19
2022-11-25T17:31:56.736Z,73.35
2022-11-25T17:34:32.672Z,73.41
2022-11-25T17:37:13.489Z,73.50
2022-11-25T17:39:46.117Z,73.65
2022-11-25T17:42:21.486Z,73.59
2022-11-25T17:44:54.492Z,73.44
2022-11-25T17:47:26.641Z,73.51
2022-11-25T17:49:58.947Z,73.55
2022-11-25T17:52:30.953Z,73.48
2022-11-25T17:55:02.915Z,73.49
2022-11-25T17:57:35.441Z,73.71
2022-11-25T18:00:13.242Z,73.49
2022-11-25T18:02:45.809Z,73.36
2022-11-25T18:05:20.524Z,73.43
2022-11-25T18:07:52.656Z,73.56
2022-11-25T18:10:28.336Z,73.45
2022-11-25T18:13:01.124Z,73.29
2022-11-25T18:15:35.189Z,73.25
2022-11-25T18:18:15.216Z,73.22
2022-11-25T18:20:47.255Z,73.21
2022-11-25T18:23:19.626Z,73.43
2022-11-25T18:25:52.741Z,73.38
2022-11-25T18:28:27.778Z,73.54
2022-11-25T18:31:02.165Z,73.66
2022-11-25T18:33:34.906Z,73.74
2022-11-25T18:36:07.682Z,73.82
2022-11-25T18:38:39.675Z,73.71
2022-11-25T18:41:21.265Z,73.77
2022-11-25T18:43:53.562Z,73.54
2022-11-25T18:46:25.615Z,73.60
2022-11-25T18:48:57.615Z,73.49
2022-11-25T18:51:29.630Z,73.64
2022-11-25T18:54:01.875Z,73.58
2022-11-25T18:56:34.119Z,73.47
2022-11-25T18:59:09.363Z,73.40
2022-11-25T19:01:45.357Z,73.14
2022-11-25T19:04:20.329Z,73.17
2022-11-25T19:06:52.317Z,73.11
2022-11-25T19:09:24.230Z,73.39
2022-11-25T19:11:56.781Z,73.35
2022-11-25T19:14:32.738Z,73.30
2022-11-25T19:17:12.313Z,73.56
2022-11-25T19:19:46.343Z,73.59
2022-11-25T19:22:18.991Z,73.76
2022-11-25T19:24:51.089Z,73.57
2022-11-25T19:27:25.228Z,73.39
2022-11-25T19:29:57.176Z,73.24
2022-11-25T19:32:32.712Z,73.36
2022-11-25T19:35:08.447Z,73.25
2022-11-25T19:37:40.525Z,73.32
2022-11-25T19:40:22.362Z,73.36
2022-11-25T19:42:54.314Z,73.31
2022-11-25T19:45:28.370Z,73.29
2022-11-25T19:48:04.948Z,72.99
2022-11-25T19:50:40.085Z,72.91
2022-11-25T19:53:18.116Z,73.01
2022-11-25T19:55:50.592Z,73.05
2022-11-25T19:58:23.988Z,73.10
2022-11-25T20:00:56.941Z,73.23
2022-11-25T20:03:32.231Z,73.31
2022-11-25T20:06:05.560Z,73.18
2022-11-25T20:08:37.525Z,73.53
2022-11-25T20:11:13.073Z,73.44
2022-11-25T20:13:46.981Z,73.34
2022-11-25T20:16:22.122Z,73.52
2022-11-25T20:18:55.184Z,73.26
2022-11-25T20:21:33.188Z,73.23
2022-11-25T20:24:07.506Z,73.09
2022-11-25T20:26:41.705Z,73.27
2022-11-25T20:29:17.778Z,73.26
2022-11-25T20:31:50.178Z,73.38
2022-11-25T20:34:22.199Z,73.13
2022-11-25T20:36:54.160Z,72.88
2022-11-25T20:39:26.610Z,72.91
2022-11-25T20:41:58.713Z,72.87
2022-11-25T20:44:30.663Z,72.92
2022-11-25T20:47:02.730Z,72.90
2022-11-25T20:49:35.287Z,73.20
2022-11-25T20:52:07.874Z,73.30
2022-11-25T20:54:39.920Z,73.30
2022-11-25T20:57:13.343Z,73.25
2022-11-25T20:59:45.338Z,73.34
2022-11-25T21:02:17.356Z,73.28
2022-11-25T21:04:50.041Z,73.33
2022-11-25T21:07:22.261Z,73.51
2022-11-25T21:09:54.931Z,73.28
2022-11-25T21:12:26.871Z,73.29
2022-11-25T21:14:58.766Z,73.26
2022-11-25T21:17:30.771Z,73.17
2022-11-25T21:20:02.740Z,72.99
2022-11-25T21:22:40.888Z,72.96
2022-11-25T21:25:15.802Z,72.87
2022-11-25T21:27:50.502Z,72.80
2022-11-25T21:30:24.361Z,72.68
2022-11-25T21:32:57.976Z,72.93
2022-11-25T21:35:34.408Z,72.82
2022-11-25T21:38:13.026Z,72.95
2022-11-25T21:40:47.624Z,72.98
2022-11-25T21:43:22.033Z,73.01
2022-11-25T21:45:58.353Z,73.08
2022-11-25T21:48:31.479Z,73.15
2022-11-25T21:51:03.850Z,73.14
2022-11-25T21:53:37.504Z,73.06
2022-11-25T21:56:19.169Z,73.29
2022-11-25T21:58:51.132Z,72.94
2022-11-25T22:01:24.180Z,72.92
2022-11-25T22:03:56.492Z,73.02
2022-11-25T22:06:30.325Z,73.06
2022-11-25T22:09:02.272Z,72.93
2022-11-25T22:11:36.966Z,72.63
2022-11-25T22:14:14.350Z,72.70
2022-11-25T22:16:46.387Z,72.79
2022-11-25T22:19:22.357Z,72.94
2022-11-25T22:21:54.265Z,72.85
2022-11-25T22:24:26.306Z,72.90
2022-11-25T22:26:58.540Z,73.09
2022-11-25T22:29:37.050Z,73.07
2022-11-25T22:32:12.808Z,73.09
2022-11-25T22:34:45.321Z,73.09
2022-11-25T22:37:20.469Z,73.02
2022-11-25T22:39:52.910Z,73.02
2022-11-25T22:42:29.714Z,72.99
2022-11-25T22:45:04.361Z,72.99
2022-11-25T22:47:40.707Z,73.04
2022-11-25T22:50:22.701Z,72.96
2022-11-25T22:52:56.074Z,72.98
2022-11-25T22:55:30.545Z,73.09
2022-11-25T22:58:04.628Z,72.52
2022-11-25T23:00:38.631Z,72.65
2022-11-25T23:03:18.866Z,72.67
2022-11-25T23:05:52.331Z,72.64
2022-11-25T23:08:26.983Z,72.77
2022-11-25T23:10:59.277Z,72.93
2022-11-25T23:13:31.212Z,73.06
2022-11-25T23:16:05.336Z,73.12
2022-11-25T23:18:40.107Z,73.07
2022-11-25T23:21:19.341Z,72.97
2022-11-25T23:23:52.515Z,73.09
2022-11-25T23:26:28.772Z,73.20
2022-11-25T23:29:04.165Z,73.04
2022-11-25T23:31:37.966Z,73.00
2022-11-25T23:34:13.655Z,73.07
2022-11-25T23:36:48.911Z,72.90
2022-11-25T23:39:23.321Z,72.95
2022-11-25T23:41:56.217Z,72.56
2022-11-25T23:44:30.876Z,72.57
2022-11-25T23:47:07.130Z,72.69
2022-11-25T23:49:44.243Z,72.65
2022-11-25T23:52:19.689Z,72.82
2022-11-25T23:54:53.956Z,72.97
2022-11-25T23:57:28.912Z,72.94
2022-11-25T23:59:59.287Z,72.89
